Airfield :
LOGIN :

Register | Disclaimer

   EN    FR    IT 

 










Legend :    VFR   Marginal VFR   IFR   Intensive IFR   Very Intensive IFR
Visi :
Ceiling :
>= 8 km
>= 3000ft
5 to 8 km
1000 to 3000 ft
1500m to 5 km
500 to 1000 ft
800 to 1500m
200 to 500 ft
< 800m
< 200 ft
Symbols :   Thunderstorms  Fog  Heavy snow  Heavy precipitations  Wind > 20 kt
SIGMETs :     Misc.  Thunderstorms  Icing  Turbulence  Mountain Waves  Volcanic Ashes







- Airport Elevation : 257 ft
- IATA code : MAN
- Download approach charts


EGCC - Manchester

CURRENT METAR :
  • 220850Z 20012G22KT 150V230 6000 -RA BKN021 13/11 Q0991 TEMPO RA

EXPIRED METARs :
  • 220820Z 19012G23KT 150V230 9000 -RA FEW021 BKN029 13/11 Q0991 TEMPO RA
  • 220750Z AUTO 18011KT 130V220 9999 BKN029 BKN039 13/10 Q0991
  • 220720Z 20009KT 170V230 9999 FEW026 13/10 Q0992 NOSIG
  • 220650Z AUTO 19009KT 140V230 9999 SCT026 13/10 Q0993 NOSIG
  • 220620Z AUTO 20011KT 170V240 9999 FEW030 SCT037 BKN046 13/10 Q0993 NOSIG

TAF AMD TAF EGCC
Valid from the 22 at 08:00 until the 23 at 12:00 UTC


220823Z 2208/2312 20010KT 9999 BKN020
BECMG 2208/2211 19018G30KT
TEMPO 2208/2306 7000 RA BKN012
TEMPO 2211/2302 18025G40KT
BECMG 2302/2305 25016KT
BECMG 2309/2312 20020G30KT
ATIS : +44 161 499 2324
No reported NOTAMs for that airfield.
2 SIGMETs reported for the London FIR (EGTT) :
 
Severe turbulence
EGTT SIGMET 03 VALID 220803/221000 EGRR
EGTT LONDON FIR SEV TURB FCST WI N5100 W00800 - N5220 W00530 - N5318 W00530 - N5348 W00353 - N5139 W00412 - N5047 W00532 - N4920 W00534 - N4850 W00800 - N5100 W00800 SFC/FL060 MOV E 10KT INTSF=
Severe mountain waves
EGTT SIGMET 02 VALID 220600/221000 EGRR
EGTT LONDON FIR SEV MTW FCST WI N5500 E00045 - N5412 E00110 - N5047 W00255 - N5045 W00430 - N5310 W00414 - N5500 W00415 - N5500 E00045 FL040/180 STNR NC=



MET'MAP, your aeronautical weather chart ! - Copyright ORBIFLY December 2007 - Disclaimer

ORBIFLY MET'MAP TEAM :

Programming & Development : Alexandra Zaïnal
Concept & Development : Baudouin d'Aumeries
Co-Development & Prog : Marc-Olivier Méhu
Technical & hardware support : Manuel Goepfert

Contact : metmap@orbifly.com




SOURCES & CREDITS :

   NOAA